sensor_id;sensor_type;location;lat;lon;timestamp;temperature;humidity
76613;DHT22;65507;48.454;-2.058;2023-02-28T00:02:19;4.70;63.70
76613;DHT22;65507;48.454;-2.058;2023-02-28T00:04:45;4.70;63.70
76613;DHT22;65507;48.454;-2.058;2023-02-28T00:07:18;4.70;63.70
76613;DHT22;65507;48.454;-2.058;2023-02-28T00:09:43;4.80;63.80
76613;DHT22;65507;48.454;-2.058;2023-02-28T00:12:09;4.70;63.80
76613;DHT22;65507;48.454;-2.058;2023-02-28T00:14:36;4.70;63.80
76613;DHT22;65507;48.454;-2.058;2023-02-28T00:17:01;4.70;63.80
76613;DHT22;65507;48.454;-2.058;2023-02-28T00:19:27;4.60;63.80
76613;DHT22;65507;48.454;-2.058;2023-02-28T00:21:53;4.60;63.90
76613;DHT22;65507;48.454;-2.058;2023-02-28T00:24:18;4.60;64.00
76613;DHT22;65507;48.454;-2.058;2023-02-28T00:26:44;4.60;64.00
76613;DHT22;65507;48.454;-2.058;2023-02-28T00:29:09;4.60;64.00
76613;DHT22;65507;48.454;-2.058;2023-02-28T00:31:35;4.80;64.10
76613;DHT22;65507;48.454;-2.058;2023-02-28T00:34:00;4.50;64.10
76613;DHT22;65507;48.454;-2.058;2023-02-28T00:36:26;4.50;64.10
76613;DHT22;65507;48.454;-2.058;2023-02-28T00:38:51;4.50;64.10
76613;DHT22;65507;48.454;-2.058;2023-02-28T00:41:17;4.50;64.30
76613;DHT22;65507;48.454;-2.058;2023-02-28T00:43:43;4.40;64.10
76613;DHT22;65507;48.454;-2.058;2023-02-28T00:46:09;4.40;64.40
76613;DHT22;65507;48.454;-2.058;2023-02-28T00:48:34;4.30;64.30
76613;DHT22;65507;48.454;-2.058;2023-02-28T00:51:00;4.30;64.30
76613;DHT22;65507;48.454;-2.058;2023-02-28T00:53:26;4.30;64.30
76613;DHT22;65507;48.454;-2.058;2023-02-28T00:55:51;4.30;64.50
76613;DHT22;65507;48.454;-2.058;2023-02-28T00:58:17;4.50;64.50
76613;DHT22;65507;48.454;-2.058;2023-02-28T01:00:43;2.90;63.70
76613;DHT22;65507;48.454;-2.058;2023-02-28T01:03:13;4.20;65.20
76613;DHT22;65507;48.454;-2.058;2023-02-28T01:05:38;4.20;64.60
76613;DHT22;65507;48.454;-2.058;2023-02-28T01:08:04;4.20;64.50
76613;DHT22;65507;48.454;-2.058;2023-02-28T01:10:29;4.20;64.60
76613;DHT22;65507;48.454;-2.058;2023-02-28T01:12:56;4.20;64.50
76613;DHT22;65507;48.454;-2.058;2023-02-28T01:15:22;4.60;64.60
76613;DHT22;65507;48.454;-2.058;2023-02-28T01:17:47;4.30;64.50
76613;DHT22;65507;48.454;-2.058;2023-02-28T01:20:13;4.10;64.40
76613;DHT22;65507;48.454;-2.058;2023-02-28T01:22:39;4.10;64.40
76613;DHT22;65507;48.454;-2.058;2023-02-28T01:25:04;4.50;64.70
76613;DHT22;65507;48.454;-2.058;2023-02-28T01:27:30;4.10;64.40
76613;DHT22;65507;48.454;-2.058;2023-02-28T01:29:55;4.30;64.50
76613;DHT22;65507;48.454;-2.058;2023-02-28T01:32:21;4.30;64.60
76613;DHT22;65507;48.454;-2.058;2023-02-28T01:34:46;4.10;64.40
76613;DHT22;65507;48.454;-2.058;2023-02-28T01:37:12;4.10;64.50
76613;DHT22;65507;48.454;-2.058;2023-02-28T01:39:37;4.80;64.80
76613;DHT22;65507;48.454;-2.058;2023-02-28T01:42:03;4.00;64.40
76613;DHT22;65507;48.454;-2.058;2023-02-28T01:47:13;4.00;64.40
76613;DHT22;65507;48.454;-2.058;2023-02-28T01:49:39;4.00;64.40
76613;DHT22;65507;48.454;-2.058;2023-02-28T01:52:04;4.30;64.60
76613;DHT22;65507;48.454;-2.058;2023-02-28T01:54:30;4.00;64.50
76613;DHT22;65507;48.454;-2.058;2023-02-28T01:56:58;4.00;64.50
76613;DHT22;65507;48.454;-2.058;2023-02-28T01:59:29;4.00;64.50
76613;DHT22;65507;48.454;-2.058;2023-02-28T02:01:57;4.00;64.40
76613;DHT22;65507;48.454;-2.058;2023-02-28T02:04:23;4.00;64.50
76613;DHT22;65507;48.454;-2.058;2023-02-28T02:06:50;4.00;64.50
76613;DHT22;65507;48.454;-2.058;2023-02-28T02:09:16;4.10;64.60
76613;DHT22;65507;48.454;-2.058;2023-02-28T02:11:42;4.40;64.70
76613;DHT22;65507;48.454;-2.058;2023-02-28T02:25:28;3.80;64.60
76613;DHT22;65507;48.454;-2.058;2023-02-28T02:31:04;3.80;64.60
76613;DHT22;65507;48.454;-2.058;2023-02-28T02:38:29;4.30;65.00
76613;DHT22;65507;48.454;-2.058;2023-02-28T02:41:04;3.70;64.60
76613;DHT22;65507;48.454;-2.058;2023-02-28T02:43:40;3.70;64.70
76613;DHT22;65507;48.454;-2.058;2023-02-28T02:46:14;3.70;64.70
76613;DHT22;65507;48.454;-2.058;2023-02-28T02:48:40;3.70;64.60
76613;DHT22;65507;48.454;-2.058;2023-02-28T02:51:09;3.70;64.60
76613;DHT22;65507;48.454;-2.058;2023-02-28T02:53:55;2.40;63.90
76613;DHT22;65507;48.454;-2.058;2023-02-28T02:56:24;3.80;64.60
76613;DHT22;65507;48.454;-2.058;2023-02-28T02:58:51;3.80;64.50
76613;DHT22;65507;48.454;-2.058;2023-02-28T03:01:19;3.70;64.50
76613;DHT22;65507;48.454;-2.058;2023-02-28T03:03:56;3.80;64.60
76613;DHT22;65507;48.454;-2.058;2023-02-28T03:06:22;3.80;64.60
76613;DHT22;65507;48.454;-2.058;2023-02-28T03:08:48;3.80;64.60
76613;DHT22;65507;48.454;-2.058;2023-02-28T03:11:14;3.80;64.60
76613;DHT22;65507;48.454;-2.058;2023-02-28T03:24:04;3.70;64.60
76613;DHT22;65507;48.454;-2.058;2023-02-28T03:26:30;3.70;64.60
76613;DHT22;65507;48.454;-2.058;2023-02-28T03:29:12;3.80;64.70
76613;DHT22;65507;48.454;-2.058;2023-02-28T03:31:48;3.70;64.70
76613;DHT22;65507;48.454;-2.058;2023-02-28T03:36:45;3.70;64.70
76613;DHT22;65507;48.454;-2.058;2023-02-28T03:39:56;4.30;65.10
76613;DHT22;65507;48.454;-2.058;2023-02-28T03:42:02;3.70;64.80
76613;DHT22;65507;48.454;-2.058;2023-02-28T03:44:35;3.60;64.80
76613;DHT22;65507;48.454;-2.058;2023-02-28T03:49:35;3.50;65.00
76613;DHT22;65507;48.454;-2.058;2023-02-28T03:52:02;3.50;65.10
76613;DHT22;65507;48.454;-2.058;2023-02-28T03:54:31;3.40;65.10
76613;DHT22;65507;48.454;-2.058;2023-02-28T03:57:03;3.90;65.40
76613;DHT22;65507;48.454;-2.058;2023-02-28T03:59:37;3.40;65.20
76613;DHT22;65507;48.454;-2.058;2023-02-28T04:02:04;3.50;65.20
76613;DHT22;65507;48.454;-2.058;2023-02-28T04:04:30;4.00;65.40
76613;DHT22;65507;48.454;-2.058;2023-02-28T04:07:06;3.40;65.00
76613;DHT22;65507;48.454;-2.058;2023-02-28T04:09:32;3.50;65.00
76613;DHT22;65507;48.454;-2.058;2023-02-28T04:11:57;3.80;65.30
76613;DHT22;65507;48.454;-2.058;2023-02-28T04:14:23;3.40;65.00
76613;DHT22;65507;48.454;-2.058;2023-02-28T04:16:49;3.80;65.20
76613;DHT22;65507;48.454;-2.058;2023-02-28T04:19:16;4.40;65.60
76613;DHT22;65507;48.454;-2.058;2023-02-28T04:21:51;3.80;65.30
76613;DHT22;65507;48.454;-2.058;2023-02-28T04:24:19;3.40;65.10
76613;DHT22;65507;48.454;-2.058;2023-02-28T04:26:45;3.30;65.10
76613;DHT22;65507;48.454;-2.058;2023-02-28T04:29:12;3.50;65.40
76613;DHT22;65507;48.454;-2.058;2023-02-28T04:31:38;4.20;66.00
76613;DHT22;65507;48.454;-2.058;2023-02-28T04:34:04;3.10;65.70
76613;DHT22;65507;48.454;-2.058;2023-02-28T04:36:29;3.20;65.80
76613;DHT22;65507;48.454;-2.058;2023-02-28T04:38:55;2.90;65.80
76613;DHT22;65507;48.454;-2.058;2023-02-28T04:41:21;3.20;66.00
76613;DHT22;65507;48.454;-2.058;2023-02-28T04:43:46;4.60;66.90
76613;DHT22;65507;48.454;-2.058;2023-02-28T04:46:12;2.90;65.90
76613;DHT22;65507;48.454;-2.058;2023-02-28T04:48:38;4.70;66.80
76613;DHT22;65507;48.454;-2.058;2023-02-28T04:51:05;4.40;66.50
76613;DHT22;65507;48.454;-2.058;2023-02-28T04:53:31;2.90;65.50
76613;DHT22;65507;48.454;-2.058;2023-02-28T04:55:57;4.80;66.40
76613;DHT22;65507;48.454;-2.058;2023-02-28T04:58:22;3.50;65.70
76613;DHT22;65507;48.454;-2.058;2023-02-28T05:00:52;2.90;65.30
76613;DHT22;65507;48.454;-2.058;2023-02-28T05:03:17;3.00;65.10
76613;DHT22;65507;48.454;-2.058;2023-02-28T05:05:43;3.00;65.10
76613;DHT22;65507;48.454;-2.058;2023-02-28T05:08:09;3.10;65.00
76613;DHT22;65507;48.454;-2.058;2023-02-28T05:10:35;3.70;65.20
76613;DHT22;65507;48.454;-2.058;2023-02-28T05:13:00;3.10;64.80
76613;DHT22;65507;48.454;-2.058;2023-02-28T05:15:26;3.80;65.30
76613;DHT22;65507;48.454;-2.058;2023-02-28T05:17:52;3.60;65.00
76613;DHT22;65507;48.454;-2.058;2023-02-28T05:20:17;3.90;65.20
76613;DHT22;65507;48.454;-2.058;2023-02-28T05:22:43;3.30;64.70
76613;DHT22;65507;48.454;-2.058;2023-02-28T05:25:13;3.50;64.80
76613;DHT22;65507;48.454;-2.058;2023-02-28T05:27:40;3.30;64.70
76613;DHT22;65507;48.454;-2.058;2023-02-28T05:30:06;3.70;65.00
76613;DHT22;65507;48.454;-2.058;2023-02-28T05:32:31;3.30;64.80
76613;DHT22;65507;48.454;-2.058;2023-02-28T05:34:57;4.00;65.10
76613;DHT22;65507;48.454;-2.058;2023-02-28T05:37:22;4.10;65.30
76613;DHT22;65507;48.454;-2.058;2023-02-28T05:39:48;3.30;65.10
76613;DHT22;65507;48.454;-2.058;2023-02-28T05:42:14;3.30;65.00
76613;DHT22;65507;48.454;-2.058;2023-02-28T05:44:39;3.60;65.00
76613;DHT22;65507;48.454;-2.058;2023-02-28T05:47:05;3.30;64.80
76613;DHT22;65507;48.454;-2.058;2023-02-28T05:49:30;3.50;65.10
76613;DHT22;65507;48.454;-2.058;2023-02-28T05:51:56;3.30;65.10
76613;DHT22;65507;48.454;-2.058;2023-02-28T05:54:21;4.80;65.70
76613;DHT22;65507;48.454;-2.058;2023-02-28T05:56:47;3.50;65.10
76613;DHT22;65507;48.454;-2.058;2023-02-28T05:59:12;3.30;65.00
76613;DHT22;65507;48.454;-2.058;2023-02-28T06:04:04;3.70;65.30
76613;DHT22;65507;48.454;-2.058;2023-02-28T06:06:30;3.30;65.10
76613;DHT22;65507;48.454;-2.058;2023-02-28T06:08:56;3.70;65.40
76613;DHT22;65507;48.454;-2.058;2023-02-28T06:11:22;4.30;65.60
76613;DHT22;65507;48.454;-2.058;2023-02-28T06:13:55;4.70;66.00
76613;DHT22;65507;48.454;-2.058;2023-02-28T06:16:21;3.30;65.00
76613;DHT22;65507;48.454;-2.058;2023-02-28T06:18:47;4.10;65.40
76613;DHT22;65507;48.454;-2.058;2023-02-28T06:21:13;3.90;65.30
76613;DHT22;65507;48.454;-2.058;2023-02-28T06:23:38;4.50;65.90
76613;DHT22;65507;48.454;-2.058;2023-02-28T06:26:04;3.30;64.90
76613;DHT22;65507;48.454;-2.058;2023-02-28T06:28:30;3.30;64.90
76613;DHT22;65507;48.454;-2.058;2023-02-28T06:30:55;4.10;65.40
76613;DHT22;65507;48.454;-2.058;2023-02-28T06:33:21;3.90;65.70
76613;DHT22;65507;48.454;-2.058;2023-02-28T06:35:47;4.50;65.70
76613;DHT22;65507;48.454;-2.058;2023-02-28T06:38:13;3.40;65.00
76613;DHT22;65507;48.454;-2.058;2023-02-28T06:40:38;4.20;65.20
76613;DHT22;65507;48.454;-2.058;2023-02-28T06:43:04;3.50;64.90
76613;DHT22;65507;48.454;-2.058;2023-02-28T06:45:30;3.70;65.00
76613;DHT22;65507;48.454;-2.058;2023-02-28T06:47:55;3.60;64.80
76613;DHT22;65507;48.454;-2.058;2023-02-28T06:50:21;3.60;64.60
76613;DHT22;65507;48.454;-2.058;2023-02-28T06:52:46;3.70;64.70
76613;DHT22;65507;48.454;-2.058;2023-02-28T06:55:12;3.70;64.60
76613;DHT22;65507;48.454;-2.058;2023-02-28T06:57:38;3.70;64.60
76613;DHT22;65507;48.454;-2.058;2023-02-28T07:00:05;4.50;65.30
76613;DHT22;65507;48.454;-2.058;2023-02-28T07:02:33;3.70;64.60
76613;DHT22;65507;48.454;-2.058;2023-02-28T07:04:58;3.70;64.80
76613;DHT22;65507;48.454;-2.058;2023-02-28T07:07:24;4.40;65.30
76613;DHT22;65507;48.454;-2.058;2023-02-28T07:09:49;3.70;65.80
76613;DHT22;65507;48.454;-2.058;2023-02-28T07:12:15;4.20;65.00
76613;DHT22;65507;48.454;-2.058;2023-02-28T07:14:41;3.80;64.80
76613;DHT22;65507;48.454;-2.058;2023-02-28T07:17:07;3.70;64.70
76613;DHT22;65507;48.454;-2.058;2023-02-28T07:19:35;3.70;64.70
76613;DHT22;65507;48.454;-2.058;2023-02-28T07:22:01;2.70;64.00
76613;DHT22;65507;48.454;-2.058;2023-02-28T07:24:28;4.20;64.80
76613;DHT22;65507;48.454;-2.058;2023-02-28T07:26:54;3.80;64.60
76613;DHT22;65507;48.454;-2.058;2023-02-28T07:29:23;3.90;64.60
76613;DHT22;65507;48.454;-2.058;2023-02-28T07:31:48;3.70;64.30
76613;DHT22;65507;48.454;-2.058;2023-02-28T07:34:15;3.90;64.40
76613;DHT22;65507;48.454;-2.058;2023-02-28T07:36:41;4.00;64.30
76613;DHT22;65507;48.454;-2.058;2023-02-28T07:39:06;4.10;64.20
76613;DHT22;65507;48.454;-2.058;2023-02-28T07:41:34;4.30;64.20
76613;DHT22;65507;48.454;-2.058;2023-02-28T07:44:02;4.20;64.20
76613;DHT22;65507;48.454;-2.058;2023-02-28T07:46:28;4.20;64.20
76613;DHT22;65507;48.454;-2.058;2023-02-28T07:49:00;4.20;64.10
76613;DHT22;65507;48.454;-2.058;2023-02-28T07:51:26;4.30;64.20
76613;DHT22;65507;48.454;-2.058;2023-02-28T07:53:51;4.30;64.10
76613;DHT22;65507;48.454;-2.058;2023-02-28T07:56:17;4.30;64.10
76613;DHT22;65507;48.454;-2.058;2023-02-28T07:58:42;3.20;64.40
76613;DHT22;65507;48.454;-2.058;2023-02-28T08:01:09;4.50;64.00
76613;DHT22;65507;48.454;-2.058;2023-02-28T08:03:35;4.60;64.00
76613;DHT22;65507;48.454;-2.058;2023-02-28T08:06:02;4.60;64.10
76613;DHT22;65507;48.454;-2.058;2023-02-28T08:08:28;4.70;63.90
76613;DHT22;65507;48.454;-2.058;2023-02-28T08:11:00;4.70;63.80
76613;DHT22;65507;48.454;-2.058;2023-02-28T08:13:26;4.80;63.80
76613;DHT22;65507;48.454;-2.058;2023-02-28T08:15:54;4.90;63.70
76613;DHT22;65507;48.454;-2.058;2023-02-28T08:18:21;4.90;63.70
76613;DHT22;65507;48.454;-2.058;2023-02-28T08:20:47;4.90;63.80
76613;DHT22;65507;48.454;-2.058;2023-02-28T08:23:13;5.00;63.80
76613;DHT22;65507;48.454;-2.058;2023-02-28T08:25:38;5.00;63.70
76613;DHT22;65507;48.454;-2.058;2023-02-28T08:28:04;5.10;63.80
76613;DHT22;65507;48.454;-2.058;2023-02-28T08:30:30;5.20;63.60
76613;DHT22;65507;48.454;-2.058;2023-02-28T08:32:55;5.20;63.40
76613;DHT22;65507;48.454;-2.058;2023-02-28T08:35:21;5.30;63.40
76613;DHT22;65507;48.454;-2.058;2023-02-28T08:37:47;5.40;63.40
76613;DHT22;65507;48.454;-2.058;2023-02-28T08:40:14;5.40;63.30
76613;DHT22;65507;48.454;-2.058;2023-02-28T08:42:44;5.50;63.30
76613;DHT22;65507;48.454;-2.058;2023-02-28T08:45:10;5.60;63.20
76613;DHT22;65507;48.454;-2.058;2023-02-28T08:47:35;5.70;63.10
76613;DHT22;65507;48.454;-2.058;2023-02-28T08:50:01;5.80;63.10
76613;DHT22;65507;48.454;-2.058;2023-02-28T08:52:27;5.90;62.90
76613;DHT22;65507;48.454;-2.058;2023-02-28T08:54:52;7.30;63.60
76613;DHT22;65507;48.454;-2.058;2023-02-28T08:57:18;6.00;62.70
76613;DHT22;65507;48.454;-2.058;2023-02-28T08:59:43;6.10;62.60
76613;DHT22;65507;48.454;-2.058;2023-02-28T09:02:11;6.10;62.70
76613;DHT22;65507;48.454;-2.058;2023-02-28T09:04:37;6.20;62.40
76613;DHT22;65507;48.454;-2.058;2023-02-28T09:07:02;6.20;62.50
76613;DHT22;65507;48.454;-2.058;2023-02-28T09:09:28;6.30;62.40
76613;DHT22;65507;48.454;-2.058;2023-02-28T09:11:55;6.40;62.30
76613;DHT22;65507;48.454;-2.058;2023-02-28T09:14:20;6.50;62.20
76613;DHT22;65507;48.454;-2.058;2023-02-28T09:16:46;6.60;62.10
76613;DHT22;65507;48.454;-2.058;2023-02-28T09:19:11;6.70;62.10
76613;DHT22;65507;48.454;-2.058;2023-02-28T09:21:37;6.70;61.90
76613;DHT22;65507;48.454;-2.058;2023-02-28T09:24:03;6.80;61.80
76613;DHT22;65507;48.454;-2.058;2023-02-28T09:26:28;8.80;62.90
76613;DHT22;65507;48.454;-2.058;2023-02-28T09:28:54;6.90;61.90
76613;DHT22;65507;48.454;-2.058;2023-02-28T09:31:24;6.90;61.70
76613;DHT22;65507;48.454;-2.058;2023-02-28T09:33:51;7.00;61.70
76613;DHT22;65507;48.454;-2.058;2023-02-28T09:36:17;7.00;61.60
76613;DHT22;65507;48.454;-2.058;2023-02-28T09:38:43;7.00;61.60
76613;DHT22;65507;48.454;-2.058;2023-02-28T09:41:11;7.00;61.50
76613;DHT22;65507;48.454;-2.058;2023-02-28T09:43:38;7.00;61.50
76613;DHT22;65507;48.454;-2.058;2023-02-28T09:46:08;7.00;61.50
76613;DHT22;65507;48.454;-2.058;2023-02-28T09:48:39;7.10;61.30
76613;DHT22;65507;48.454;-2.058;2023-02-28T09:53:36;7.20;61.30
76613;DHT22;65507;48.454;-2.058;2023-02-28T09:56:06;7.20;61.20
76613;DHT22;65507;48.454;-2.058;2023-02-28T09:58:37;7.30;61.60
76613;DHT22;65507;48.454;-2.058;2023-02-28T10:03:40;7.40;61.00
76613;DHT22;65507;48.454;-2.058;2023-02-28T10:08:37;7.50;60.90
76613;DHT22;65507;48.454;-2.058;2023-02-28T10:11:07;7.40;60.70
76613;DHT22;65507;48.454;-2.058;2023-02-28T10:13:35;7.40;60.70
76613;DHT22;65507;48.454;-2.058;2023-02-28T10:16:06;7.40;60.60
76613;DHT22;65507;48.454;-2.058;2023-02-28T10:21:37;7.50;60.60
76613;DHT22;65507;48.454;-2.058;2023-02-28T10:24:11;7.70;60.40
76613;DHT22;65507;48.454;-2.058;2023-02-28T10:26:39;7.80;60.40
76613;DHT22;65507;48.454;-2.058;2023-02-28T10:29:07;7.80;60.20
76613;DHT22;65507;48.454;-2.058;2023-02-28T10:31:33;7.80;60.30
76613;DHT22;65507;48.454;-2.058;2023-02-28T10:33:59;7.80;60.40
76613;DHT22;65507;48.454;-2.058;2023-02-28T10:36:24;7.90;60.20
76613;DHT22;65507;48.454;-2.058;2023-02-28T10:38:50;7.90;60.30
76613;DHT22;65507;48.454;-2.058;2023-02-28T10:41:17;8.20;60.30
76613;DHT22;65507;48.454;-2.058;2023-02-28T10:43:51;8.00;60.20
76613;DHT22;65507;48.454;-2.058;2023-02-28T10:46:18;8.00;60.20
76613;DHT22;65507;48.454;-2.058;2023-02-28T10:51:45;8.10;60.00
76613;DHT22;65507;48.454;-2.058;2023-02-28T10:54:14;8.10;60.00
76613;DHT22;65507;48.454;-2.058;2023-02-28T10:56:40;8.10;60.00
76613;DHT22;65507;48.454;-2.058;2023-02-28T11:01:41;10.10;60.90
76613;DHT22;65507;48.454;-2.058;2023-02-28T11:06:47;8.20;59.80
76613;DHT22;65507;48.454;-2.058;2023-02-28T11:09:23;8.20;59.60
76613;DHT22;65507;48.454;-2.058;2023-02-28T11:11:50;8.10;59.50
76613;DHT22;65507;48.454;-2.058;2023-02-28T11:14:22;8.10;59.60
76613;DHT22;65507;48.454;-2.058;2023-02-28T11:16:49;8.20;59.70
76613;DHT22;65507;48.454;-2.058;2023-02-28T11:19:25;8.20;59.60
76613;DHT22;65507;48.454;-2.058;2023-02-28T11:21:55;8.30;59.60
76613;DHT22;65507;48.454;-2.058;2023-02-28T11:24:24;8.50;59.30
76613;DHT22;65507;48.454;-2.058;2023-02-28T11:26:51;8.50;59.20
76613;DHT22;65507;48.454;-2.058;2023-02-28T11:29:24;8.40;59.60
76613;DHT22;65507;48.454;-2.058;2023-02-28T11:34:34;8.40;58.80
76613;DHT22;65507;48.454;-2.058;2023-02-28T11:37:00;8.40;58.90
76613;DHT22;65507;48.454;-2.058;2023-02-28T11:39:30;7.80;58.80
76613;DHT22;65507;48.454;-2.058;2023-02-28T11:42:14;8.60;59.20
76613;DHT22;65507;48.454;-2.058;2023-02-28T12:05:37;7.40;57.80
76613;DHT22;65507;48.454;-2.058;2023-02-28T12:13:51;8.80;58.60
76613;DHT22;65507;48.454;-2.058;2023-02-28T12:18:56;10.30;59.00
76613;DHT22;65507;48.454;-2.058;2023-02-28T12:21:48;9.00;58.40
76613;DHT22;65507;48.454;-2.058;2023-02-28T12:26:45;9.10;57.90
76613;DHT22;65507;48.454;-2.058;2023-02-28T12:29:21;9.10;58.00
76613;DHT22;65507;48.454;-2.058;2023-02-28T12:31:50;10.10;58.40
76613;DHT22;65507;48.454;-2.058;2023-02-28T12:34:25;9.00;57.90
76613;DHT22;65507;48.454;-2.058;2023-02-28T12:36:52;9.10;57.90
76613;DHT22;65507;48.454;-2.058;2023-02-28T12:41:49;9.20;57.50
76613;DHT22;65507;48.454;-2.058;2023-02-28T12:46:51;9.30;57.30
76613;DHT22;65507;48.454;-2.058;2023-02-28T12:49:21;9.30;57.40
76613;DHT22;65507;48.454;-2.058;2023-02-28T12:51:49;9.10;57.70
76613;DHT22;65507;48.454;-2.058;2023-02-28T12:54:24;9.10;57.90
76613;DHT22;65507;48.454;-2.058;2023-02-28T12:59:37;9.10;58.10
76613;DHT22;65507;48.454;-2.058;2023-02-28T13:10:03;9.40;58.00
76613;DHT22;65507;48.454;-2.058;2023-02-28T13:12:31;9.40;58.10
76613;DHT22;65507;48.454;-2.058;2023-02-28T13:17:41;9.10;58.30
76613;DHT22;65507;48.454;-2.058;2023-02-28T13:20:17;9.10;58.50
76613;DHT22;65507;48.454;-2.058;2023-02-28T13:22:47;9.00;58.50
76613;DHT22;65507;48.454;-2.058;2023-02-28T13:27:45;9.80;59.00
76613;DHT22;65507;48.454;-2.058;2023-02-28T13:30:59;9.20;58.50
76613;DHT22;65507;48.454;-2.058;2023-02-28T13:35:43;9.20;58.60
76613;DHT22;65507;48.454;-2.058;2023-02-28T13:38:17;9.10;58.70
76613;DHT22;65507;48.454;-2.058;2023-02-28T13:40:46;9.00;59.00
76613;DHT22;65507;48.454;-2.058;2023-02-28T13:43:12;9.00;59.30
76613;DHT22;65507;48.454;-2.058;2023-02-28T13:45:44;8.90;59.90
76613;DHT22;65507;48.454;-2.058;2023-02-28T13:48:27;8.80;59.40
76613;DHT22;65507;48.454;-2.058;2023-02-28T13:50:54;8.80;59.50
76613;DHT22;65507;48.454;-2.058;2023-02-28T13:56:19;8.70;59.80
76613;DHT22;65507;48.454;-2.058;2023-02-28T14:08:45;8.50;59.90
76613;DHT22;65507;48.454;-2.058;2023-02-28T14:11:23;8.50;59.90
76613;DHT22;65507;48.454;-2.058;2023-02-28T14:13:49;8.50;60.00
76613;DHT22;65507;48.454;-2.058;2023-02-28T14:16:24;8.40;60.90
76613;DHT22;65507;48.454;-2.058;2023-02-28T14:18:58;8.30;60.00
76613;DHT22;65507;48.454;-2.058;2023-02-28T14:37:00;8.10;60.40
76613;DHT22;65507;48.454;-2.058;2023-02-28T14:39:26;8.10;60.50
76613;DHT22;65507;48.454;-2.058;2023-02-28T14:41:56;8.10;60.50
76613;DHT22;65507;48.454;-2.058;2023-02-28T14:44:25;8.10;60.40
76613;DHT22;65507;48.454;-2.058;2023-02-28T14:46:55;8.20;60.50
76613;DHT22;65507;48.454;-2.058;2023-02-28T14:54:36;8.20;60.50
76613;DHT22;65507;48.454;-2.058;2023-02-28T14:57:02;8.10;60.70
76613;DHT22;65507;48.454;-2.058;2023-02-28T14:59:29;9.10;61.50
76613;DHT22;65507;48.454;-2.058;2023-02-28T15:04:40;7.90;61.30
76613;DHT22;65507;48.454;-2.058;2023-02-28T15:07:10;7.80;61.50
76613;DHT22;65507;48.454;-2.058;2023-02-28T15:09:36;7.80;61.50
76613;DHT22;65507;48.454;-2.058;2023-02-28T15:12:02;7.80;61.70
76613;DHT22;65507;48.454;-2.058;2023-02-28T15:14:28;7.70;62.00
76613;DHT22;65507;48.454;-2.058;2023-02-28T15:16:56;7.60;62.20
76613;DHT22;65507;48.454;-2.058;2023-02-28T15:19:32;7.50;62.50
76613;DHT22;65507;48.454;-2.058;2023-02-28T15:22:01;7.50;62.80
76613;DHT22;65507;48.454;-2.058;2023-02-28T15:24:35;7.30;63.00
76613;DHT22;65507;48.454;-2.058;2023-02-28T15:27:06;7.20;63.30
76613;DHT22;65507;48.454;-2.058;2023-02-28T15:29:34;7.20;63.40
76613;DHT22;65507;48.454;-2.058;2023-02-28T15:32:03;7.20;63.50
76613;DHT22;65507;48.454;-2.058;2023-02-28T15:34:39;7.20;63.40
76613;DHT22;65507;48.454;-2.058;2023-02-28T15:43:12;7.30;63.60
76613;DHT22;65507;48.454;-2.058;2023-02-28T15:45:46;7.30;63.50
76613;DHT22;65507;48.454;-2.058;2023-02-28T15:48:34;7.30;63.60
76613;DHT22;65507;48.454;-2.058;2023-02-28T15:51:02;7.30;63.80
76613;DHT22;65507;48.454;-2.058;2023-02-28T15:53:37;7.30;64.20
76613;DHT22;65507;48.454;-2.058;2023-02-28T15:56:06;7.20;64.40
76613;DHT22;65507;48.454;-2.058;2023-02-28T15:58:37;7.20;64.70
76613;DHT22;65507;48.454;-2.058;2023-02-28T16:01:05;7.20;64.70
76613;DHT22;65507;48.454;-2.058;2023-02-28T16:03:37;7.20;64.70
76613;DHT22;65507;48.454;-2.058;2023-02-28T16:08:47;7.20;64.50
76613;DHT22;65507;48.454;-2.058;2023-02-28T16:11:14;7.20;64.60
76613;DHT22;65507;48.454;-2.058;2023-02-28T16:13:40;7.20;64.60
76613;DHT22;65507;48.454;-2.058;2023-02-28T16:16:05;7.20;64.80
76613;DHT22;65507;48.454;-2.058;2023-02-28T16:18:31;7.20;64.90
76613;DHT22;65507;48.454;-2.058;2023-02-28T16:20:56;7.20;64.90
76613;DHT22;65507;48.454;-2.058;2023-02-28T16:23:22;7.30;64.80
76613;DHT22;65507;48.454;-2.058;2023-02-28T16:25:48;7.20;64.90
76613;DHT22;65507;48.454;-2.058;2023-02-28T16:28:20;7.20;65.10
76613;DHT22;65507;48.454;-2.058;2023-02-28T16:30:46;7.20;65.10
76613;DHT22;65507;48.454;-2.058;2023-02-28T16:33:11;7.20;65.10
76613;DHT22;65507;48.454;-2.058;2023-02-28T16:35:37;7.20;65.20
76613;DHT22;65507;48.454;-2.058;2023-02-28T16:38:03;7.20;65.30
76613;DHT22;65507;48.454;-2.058;2023-02-28T16:40:28;7.20;65.30
76613;DHT22;65507;48.454;-2.058;2023-02-28T16:42:58;7.20;65.10
76613;DHT22;65507;48.454;-2.058;2023-02-28T16:45:25;7.20;65.10
76613;DHT22;65507;48.454;-2.058;2023-02-28T16:47:51;7.30;65.10
76613;DHT22;65507;48.454;-2.058;2023-02-28T16:50:21;7.20;65.20
76613;DHT22;65507;48.454;-2.058;2023-02-28T16:52:47;7.20;65.30
76613;DHT22;65507;48.454;-2.058;2023-02-28T16:55:15;7.20;65.30
76613;DHT22;65507;48.454;-2.058;2023-02-28T16:57:41;7.20;65.30
76613;DHT22;65507;48.454;-2.058;2023-02-28T17:00:07;7.20;65.40
76613;DHT22;65507;48.454;-2.058;2023-02-28T17:02:33;7.10;65.30
76613;DHT22;65507;48.454;-2.058;2023-02-28T17:04:59;7.10;65.70
76613;DHT22;65507;48.454;-2.058;2023-02-28T17:07:25;7.10;65.80
76613;DHT22;65507;48.454;-2.058;2023-02-28T17:09:50;7.00;65.80
76613;DHT22;65507;48.454;-2.058;2023-02-28T17:12:16;7.00;66.00
76613;DHT22;65507;48.454;-2.058;2023-02-28T17:14:41;7.00;66.30
76613;DHT22;65507;48.454;-2.058;2023-02-28T17:17:09;7.00;66.30
76613;DHT22;65507;48.454;-2.058;2023-02-28T17:19:35;7.00;66.00
76613;DHT22;65507;48.454;-2.058;2023-02-28T17:22:01;7.00;66.00
76613;DHT22;65507;48.454;-2.058;2023-02-28T17:24:28;7.00;65.90
76613;DHT22;65507;48.454;-2.058;2023-02-28T17:26:53;7.10;65.80
76613;DHT22;65507;48.454;-2.058;2023-02-28T17:29:20;7.10;65.80
76613;DHT22;65507;48.454;-2.058;2023-02-28T17:31:45;7.10;65.80
76613;DHT22;65507;48.454;-2.058;2023-02-28T17:34:11;7.00;65.80
76613;DHT22;65507;48.454;-2.058;2023-02-28T17:36:43;7.10;65.70
76613;DHT22;65507;48.454;-2.058;2023-02-28T17:39:09;7.10;65.60
76613;DHT22;65507;48.454;-2.058;2023-02-28T17:41:36;7.10;65.40
76613;DHT22;65507;48.454;-2.058;2023-02-28T17:44:01;7.20;65.50
76613;DHT22;65507;48.454;-2.058;2023-02-28T17:46:27;7.20;65.40
76613;DHT22;65507;48.454;-2.058;2023-02-28T17:48:53;7.20;65.40
76613;DHT22;65507;48.454;-2.058;2023-02-28T17:51:20;7.30;65.50
76613;DHT22;65507;48.454;-2.058;2023-02-28T17:53:46;7.30;65.70
76613;DHT22;65507;48.454;-2.058;2023-02-28T17:56:12;7.30;65.80
76613;DHT22;65507;48.454;-2.058;2023-02-28T17:58:38;7.30;65.70
76613;DHT22;65507;48.454;-2.058;2023-02-28T18:01:04;7.30;65.80
76613;DHT22;65507;48.454;-2.058;2023-02-28T18:03:30;7.30;65.80
76613;DHT22;65507;48.454;-2.058;2023-02-28T18:05:56;7.30;65.70
76613;DHT22;65507;48.454;-2.058;2023-02-28T18:08:22;7.30;65.60
76613;DHT22;65507;48.454;-2.058;2023-02-28T18:10:47;7.40;65.80
76613;DHT22;65507;48.454;-2.058;2023-02-28T18:13:13;7.40;65.80
76613;DHT22;65507;48.454;-2.058;2023-02-28T18:15:39;7.40;65.80